createdAt,value
2022-08-23T00:01:14.597Z,100649.13
2022-08-23T00:03:17.624Z,100643.94
2022-08-23T00:05:20.525Z,100650.69
2022-08-23T00:07:23.816Z,100643.84
2022-08-23T00:09:29.198Z,100659.84
2022-08-23T00:11:49.098Z,100652.59
2022-08-23T00:13:51.957Z,100651.75
2022-08-23T00:15:54.880Z,100660.50
2022-08-23T00:17:58.031Z,100663.66
2022-08-23T00:20:00.691Z,100658.81
2022-08-23T00:22:03.493Z,100663.63
2022-08-23T00:24:12.277Z,100659.94
2022-08-23T00:26:16.232Z,100665.88
2022-08-23T00:28:19.725Z,100671.88
2022-08-23T00:30:22.458Z,100671.06
2022-08-23T00:32:29.320Z,100670.63
2022-08-23T00:34:32.144Z,100662.59
2022-08-23T00:36:34.891Z,100675.78
2022-08-23T00:38:38.063Z,100673.72
2022-08-23T00:40:43.165Z,100673.66
2022-08-23T00:43:13.064Z,100676.34
2022-08-23T00:45:38.972Z,100681.09
2022-08-23T00:47:42.955Z,100676.97
2022-08-23T00:50:23.434Z,100682.91
2022-08-23T00:52:38.769Z,100682.41
2022-08-23T00:54:43.837Z,100683.59
2022-08-23T00:56:46.596Z,100682.41
2022-08-23T00:58:50.111Z,100685.66
2022-08-23T01:00:55.470Z,100679.69
2022-08-23T01:02:58.513Z,100689.34
2022-08-23T01:05:02.178Z,100693.38
2022-08-23T01:07:16.540Z,100692.19
2022-08-23T01:09:21.582Z,100686.25
2022-08-23T01:11:35.676Z,100694.19
2022-08-23T01:13:58.673Z,100694.53
2022-08-23T01:16:10.578Z,100692.41
2022-08-23T01:18:17.322Z,100694.78
2022-08-23T01:20:26.796Z,100705.97
2022-08-23T01:22:45.228Z,100707.94
2022-08-23T01:25:05.735Z,100702.72
2022-08-23T01:27:13.703Z,100704.72
2022-08-23T01:29:17.518Z,100704.72
2022-08-23T01:31:22.894Z,100701.84
2022-08-23T01:33:25.669Z,100710.09
2022-08-23T01:35:38.303Z,100702.63
2022-08-23T01:37:42.469Z,100716.25
2022-08-23T01:39:45.607Z,100713.47
2022-08-23T01:41:48.319Z,100707.13
2022-08-23T01:43:52.021Z,100724.34
2022-08-23T01:45:54.942Z,100711.56
2022-08-23T01:47:58.169Z,100712.34
2022-08-23T01:50:00.794Z,100720.38
2022-08-23T01:52:04.092Z,100722.75
2022-08-23T01:54:06.697Z,100727.44
2022-08-23T01:56:09.727Z,100722.28
2022-08-23T01:58:12.602Z,100731.53
2022-08-23T02:00:15.634Z,100725.31
2022-08-23T02:02:18.263Z,100728.53
2022-08-23T02:04:22.548Z,100731.00
2022-08-23T02:06:25.213Z,100729.78
2022-08-23T02:08:46.877Z,100727.00
2022-08-23T02:10:49.655Z,100735.09
2022-08-23T02:12:52.327Z,100735.97
2022-08-23T02:15:16.174Z,100732.47
2022-08-23T02:17:18.804Z,100738.13
2022-08-23T02:19:22.153Z,100734.22
2022-08-23T02:21:26.412Z,100732.22
2022-08-23T02:23:29.380Z,100733.03
2022-08-23T02:25:32.054Z,100732.31
2022-08-23T02:27:35.420Z,100735.56
2022-08-23T02:29:39.352Z,100737.97
2022-08-23T02:31:44.391Z,100729.66
2022-08-23T02:33:46.959Z,100740.09
2022-08-23T02:35:50.206Z,100741.72
2022-08-23T02:37:56.053Z,100740.53
2022-08-23T02:39:58.671Z,100741.78
2022-08-23T02:42:01.598Z,100744.66
2022-08-23T02:44:06.001Z,100744.28
2022-08-23T02:46:08.578Z,100740.31
2022-08-23T02:48:11.329Z,100742.38
2022-08-23T02:50:14.227Z,100743.25
2022-08-23T02:52:16.861Z,100748.91
2022-08-23T02:54:19.430Z,100748.53
2022-08-23T02:56:22.214Z,100744.66
2022-08-23T02:58:25.607Z,100745.47
2022-08-23T03:00:28.932Z,100746.72
2022-08-23T03:02:32.060Z,100747.50
2022-08-23T03:04:35.916Z,100759.25
2022-08-23T03:06:39.341Z,100750.09
2022-08-23T03:08:42.577Z,100746.53
2022-08-23T03:10:47.564Z,100750.22
2022-08-23T03:12:50.859Z,100756.38
2022-08-23T03:14:53.516Z,100758.56
2022-08-23T03:16:58.338Z,100763.03
2022-08-23T03:19:02.565Z,100766.72
2022-08-23T03:21:06.595Z,100763.59
2022-08-23T03:23:11.174Z,100755.63
2022-08-23T03:25:13.772Z,100763.72
2022-08-23T03:27:18.284Z,100769.03
2022-08-23T03:29:20.970Z,100772.66
2022-08-23T03:31:23.609Z,100769.94
2022-08-23T03:33:26.291Z,100772.81
2022-08-23T03:35:29.620Z,100770.13
2022-08-23T03:37:32.390Z,100777.78
2022-08-23T03:39:34.994Z,100777.84
2022-08-23T03:41:37.574Z,100772.75
2022-08-23T03:43:40.431Z,100784.44
2022-08-23T03:45:43.209Z,100774.88
2022-08-23T03:47:46.099Z,100779.34
2022-08-23T03:49:48.781Z,100779.09
2022-08-23T03:51:51.318Z,100781.94
2022-08-23T03:53:53.991Z,100777.63
2022-08-23T03:55:56.720Z,100778.88
2022-08-23T03:58:00.101Z,100784.59
2022-08-23T04:00:03.185Z,100785.09
2022-08-23T04:02:07.950Z,100794.41
2022-08-23T04:04:10.988Z,100787.22
2022-08-23T04:06:13.638Z,100794.50
2022-08-23T04:08:23.256Z,100790.91
2022-08-23T04:10:36.012Z,100789.78
2022-08-23T04:12:38.536Z,100790.63
2022-08-23T04:14:41.147Z,100786.69
2022-08-23T04:16:44.629Z,100791.53
2022-08-23T04:18:47.251Z,100782.38
2022-08-23T04:20:50.776Z,100790.06
2022-08-23T04:22:54.772Z,100795.78
2022-08-23T04:24:57.386Z,100792.22
2022-08-23T04:26:59.964Z,100794.28
2022-08-23T04:29:03.118Z,100794.34
2022-08-23T04:31:06.156Z,100790.44
2022-08-23T04:33:09.935Z,100789.31
2022-08-23T04:35:14.075Z,100792.59
2022-08-23T04:37:16.683Z,100795.03
2022-08-23T04:39:19.565Z,100791.47
2022-08-23T04:41:40.732Z,100796.78
2022-08-23T04:43:44.258Z,100790.84
2022-08-23T04:45:47.337Z,100790.91
2022-08-23T04:47:49.941Z,100796.16
2022-08-23T04:49:52.502Z,100789.75
2022-08-23T04:51:55.754Z,100793.78
2022-08-23T04:53:58.477Z,100799.88
2022-08-23T04:56:02.450Z,100801.13
2022-08-23T04:58:08.264Z,100799.59
2022-08-23T05:00:13.697Z,100804.03
2022-08-23T05:02:16.262Z,100794.00
2022-08-23T05:04:19.145Z,100799.31
2022-08-23T05:06:22.307Z,100798.53
2022-08-23T05:08:26.168Z,100809.41
2022-08-23T05:10:28.979Z,100798.59
2022-08-23T05:12:31.564Z,100804.66
2022-08-23T05:14:34.075Z,100807.47
2022-08-23T05:16:36.684Z,100807.50
2022-08-23T05:18:39.303Z,100799.53
2022-08-23T05:20:41.867Z,100804.41
2022-08-23T05:22:44.856Z,100805.66
2022-08-23T05:24:47.394Z,100802.41
2022-08-23T05:26:50.022Z,100804.47
2022-08-23T05:28:54.509Z,100799.63
2022-08-23T05:31:15.986Z,100793.22
2022-08-23T05:33:19.533Z,100802.50
2022-08-23T05:35:22.077Z,100800.91
2022-08-23T05:37:24.710Z,100805.72
2022-08-23T05:39:36.691Z,100807.72
2022-08-23T05:41:40.462Z,100809.78
2022-08-23T05:43:43.838Z,100812.59
2022-08-23T05:45:47.201Z,100813.03
2022-08-23T05:47:49.881Z,100798.56
2022-08-23T05:49:53.104Z,100809.84
2022-08-23T05:51:56.919Z,100803.03
2022-08-23T05:54:04.161Z,100806.66
2022-08-23T05:56:41.686Z,100807.47
2022-08-23T05:58:45.358Z,100803.44
2022-08-23T06:00:47.957Z,100805.84
2022-08-23T06:02:50.637Z,100811.50
2022-08-23T06:04:57.143Z,100806.25
2022-08-23T06:07:00.074Z,100798.63
2022-08-23T06:09:05.696Z,100803.84
2022-08-23T06:11:14.870Z,100803.44
2022-08-23T06:13:17.417Z,100806.66
2022-08-23T06:15:20.014Z,100808.25
2022-08-23T06:17:22.608Z,100800.59
2022-08-23T06:19:25.189Z,100803.84
2022-08-23T06:21:28.067Z,100802.22
2022-08-23T06:23:30.946Z,100812.28
2022-08-23T06:25:37.727Z,100811.47
2022-08-23T06:27:40.254Z,100814.69
2022-08-23T06:29:43.148Z,100811.03
2022-08-23T06:31:50.273Z,100811.06
2022-08-23T06:33:53.519Z,100810.22
2022-08-23T06:36:06.342Z,100806.19
2022-08-23T06:38:08.976Z,100806.16
2022-08-23T06:40:11.614Z,100818.25
2022-08-23T06:42:37.997Z,100816.63
2022-08-23T06:44:39.107Z,100816.25
2022-08-23T06:46:43.512Z,100825.09
2022-08-23T06:48:47.635Z,100800.91
2022-08-23T06:50:50.459Z,100826.69
2022-08-23T06:52:56.246Z,100823.06
2022-08-23T06:54:59.425Z,100825.44
2022-08-23T06:57:03.473Z,100827.06
2022-08-23T06:59:07.569Z,100818.56
2022-08-23T07:01:43.987Z,100818.97
2022-08-23T07:03:42.037Z,100818.13
2022-08-23T07:05:44.774Z,100824.97
2022-08-23T07:07:47.610Z,100827.78
2022-08-23T07:09:50.320Z,100829.00
2022-08-23T07:11:53.202Z,100824.53
2022-08-23T07:13:56.210Z,100818.84
2022-08-23T07:16:00.554Z,100820.84
2022-08-23T07:18:03.834Z,100818.84
2022-08-23T07:20:07.092Z,100820.81
2022-08-23T07:22:11.190Z,100823.63
2022-08-23T07:24:14.174Z,100822.03
2022-08-23T07:26:18.194Z,100822.41
2022-08-23T07:28:21.223Z,100800.63
2022-08-23T07:30:23.974Z,100815.09
2022-08-23T07:32:26.817Z,100815.06
2022-08-23T07:34:29.591Z,100813.41
2022-08-23T07:36:33.845Z,100819.84
2022-08-23T07:38:37.215Z,100804.06
2022-08-23T07:40:40.853Z,100814.94
2022-08-23T07:42:43.612Z,100814.06
2022-08-23T07:44:46.304Z,100810.44
2022-08-23T07:46:49.518Z,100806.84
2022-08-23T07:48:54.678Z,100814.13
2022-08-23T07:51:02.090Z,100812.44
2022-08-23T07:53:04.979Z,100807.50
2022-08-23T07:55:10.625Z,100806.69
2022-08-23T07:57:14.294Z,100799.00
2022-08-23T07:59:17.030Z,100802.63
2022-08-23T08:01:23.835Z,100808.25
2022-08-23T08:03:26.582Z,100802.59
2022-08-23T08:05:32.790Z,100800.88
2022-08-23T08:07:37.765Z,100803.63
2022-08-23T08:09:41.162Z,100801.19
2022-08-23T08:11:47.529Z,100800.34
2022-08-23T08:13:51.839Z,100801.09
2022-08-23T08:15:55.346Z,100790.91
2022-08-23T08:17:58.700Z,100798.91
2022-08-23T08:20:01.526Z,100802.53
2022-08-23T08:22:05.724Z,100793.97
2022-08-23T08:24:10.793Z,100793.16
2022-08-23T08:26:14.424Z,100800.88
2022-08-23T08:28:17.364Z,100800.41
2022-08-23T08:30:20.199Z,100797.53
2022-08-23T08:32:22.864Z,100794.59
2022-08-23T08:34:25.977Z,100795.03
2022-08-23T08:36:44.404Z,100797.81
2022-08-23T08:38:48.469Z,100797.78
2022-08-23T08:41:06.948Z,100790.84
2022-08-23T08:43:37.587Z,100795.66
2022-08-23T08:46:17.309Z,100791.97
2022-08-23T08:48:24.131Z,100796.38
2022-08-23T08:50:34.257Z,100784.25
2022-08-23T08:52:44.526Z,100786.94
2022-08-23T08:54:50.171Z,100791.41
2022-08-23T08:57:01.376Z,100787.34
2022-08-23T08:59:13.387Z,100772.81
2022-08-23T09:01:17.767Z,100776.34
2022-08-23T09:03:22.898Z,100777.06
2022-08-23T09:05:31.882Z,100783.13
2022-08-23T09:07:47.561Z,100779.13
2022-08-23T09:10:15.536Z,100782.34
2022-08-23T09:12:28.996Z,100779.50
2022-08-23T09:15:01.238Z,100785.88
2022-08-23T09:17:21.340Z,100778.53
2022-08-23T09:19:25.670Z,100778.81
2022-08-23T09:21:30.838Z,100775.41
2022-08-23T09:23:42.537Z,100775.69
2022-08-23T09:25:54.137Z,100774.34
2022-08-23T09:27:57.031Z,100771.50
2022-08-23T09:30:01.512Z,100769.78
2022-08-23T09:32:07.818Z,100767.69
2022-08-23T09:34:37.445Z,100769.28
2022-08-23T09:36:40.262Z,100770.44
2022-08-23T09:38:54.874Z,100760.25
2022-08-23T09:40:58.793Z,100760.13
2022-08-23T09:43:13.543Z,100765.66
2022-08-23T09:45:35.860Z,100756.34
2022-08-23T09:47:44.524Z,100758.44
2022-08-23T09:49:48.724Z,100762.91
2022-08-23T09:51:54.323Z,100759.84
2022-08-23T09:54:10.911Z,100767.75
2022-08-23T09:56:19.976Z,100761.75
2022-08-23T09:58:47.399Z,100757.41
2022-08-23T10:01:08.405Z,100757.16
2022-08-23T10:03:27.626Z,100749.31
2022-08-23T10:05:38.085Z,100758.50
2022-08-23T10:07:53.149Z,100747.06
2022-08-23T10:10:16.325Z,100753.88
2022-08-23T10:12:18.962Z,100745.19
2022-08-23T10:14:25.931Z,100758.03
2022-08-23T10:16:58.555Z,100757.91
2022-08-23T10:19:10.848Z,100754.72
2022-08-23T10:21:54.652Z,100761.09
2022-08-23T10:24:28.501Z,100756.03
2022-08-23T10:26:33.302Z,100756.75
2022-08-23T10:29:37.545Z,100757.25
2022-08-23T10:32:05.355Z,100753.81
2022-08-23T10:34:17.138Z,100760.66
2022-08-23T10:36:28.955Z,100759.38
2022-08-23T10:38:40.749Z,100753.28
2022-08-23T10:40:55.006Z,100761.13
2022-08-23T10:43:39.866Z,100763.34
2022-08-23T10:45:46.920Z,100758.47
2022-08-23T10:48:01.833Z,100758.84
2022-08-23T10:50:09.345Z,100752.25
2022-08-23T10:52:22.054Z,100751.72
2022-08-23T10:54:46.367Z,100744.31
2022-08-23T10:56:51.149Z,100741.97
2022-08-23T10:59:02.773Z,100753.53
2022-08-23T11:01:07.791Z,100745.09
2022-08-23T11:03:30.324Z,100752.84
2022-08-23T11:05:36.148Z,100749.78
2022-08-23T11:07:43.557Z,100746.22
2022-08-23T11:10:16.773Z,100738.53
2022-08-23T11:12:27.499Z,100738.19
2022-08-23T11:14:42.079Z,100739.16
2022-08-23T11:16:46.968Z,100735.66
2022-08-23T11:18:51.440Z,100742.50
2022-08-23T11:20:58.712Z,100731.25
2022-08-23T11:23:01.549Z,100731.25
2022-08-23T11:25:26.826Z,100733.31
2022-08-23T11:27:30.901Z,100727.81
2022-08-23T11:29:36.069Z,100737.16
2022-08-23T11:31:47.816Z,100734.88
2022-08-23T11:34:09.262Z,100727.47
2022-08-23T11:36:23.409Z,100731.94
2022-08-23T11:38:43.968Z,100728.69
2022-08-23T11:40:52.836Z,100725.25
2022-08-23T11:43:06.464Z,100726.97
2022-08-23T11:45:38.125Z,100728.69
2022-08-23T11:47:44.532Z,100730.38
2022-08-23T11:50:07.148Z,100724.91
2022-08-23T11:52:12.790Z,100722.28
2022-08-23T11:54:24.291Z,100723.28
2022-08-23T11:56:51.482Z,100719.63
2022-08-23T11:59:20.442Z,100713.16
2022-08-23T12:01:34.213Z,100712.97
2022-08-23T12:03:55.877Z,100713.31
2022-08-23T12:06:12.636Z,100708.09
2022-08-23T12:08:23.128Z,100717.28
2022-08-23T12:10:46.582Z,100720.41
2022-08-23T12:13:21.246Z,100712.38
2022-08-23T12:16:03.296Z,100713.78
2022-08-23T12:18:13.851Z,100713.22
2022-08-23T12:20:28.636Z,100716.13
2022-08-23T12:22:57.198Z,100709.38
2022-08-23T12:25:04.772Z,100707.28
2022-08-23T12:27:26.396Z,100708.97
2022-08-23T12:37:45.842Z,100705.47
2022-08-23T12:44:55.726Z,100697.69
2022-08-23T12:47:12.942Z,100700.56
2022-08-23T12:49:32.210Z,100694.53
2022-08-23T12:51:53.460Z,100697.84
2022-08-23T12:53:56.961Z,100694.16
2022-08-23T12:56:32.116Z,100692.47
2022-08-23T12:58:39.686Z,100691.47
2022-08-23T13:00:53.214Z,100682.56
2022-08-23T13:03:01.637Z,100679.63
2022-08-23T13:05:30.381Z,100681.84
2022-08-23T13:07:33.546Z,100686.81
2022-08-23T13:09:39.945Z,100687.53
2022-08-23T13:11:44.231Z,100680.75
2022-08-23T13:13:47.681Z,100678.69
2022-08-23T13:15:58.579Z,100673.97
2022-08-23T13:18:02.198Z,100677.22
2022-08-23T13:20:08.161Z,100668.66
2022-08-23T13:22:22.691Z,100673.69
2022-08-23T13:24:38.319Z,100675.03
2022-08-23T13:26:44.162Z,100671.91
2022-08-23T13:29:02.413Z,100671.50
2022-08-23T13:31:10.553Z,100670.13
2022-08-23T13:33:13.230Z,100674.53
2022-08-23T13:35:38.282Z,100676.69
2022-08-23T13:37:46.919Z,100667.59
2022-08-23T13:39:54.436Z,100665.47
2022-08-23T13:41:57.458Z,100670.69
2022-08-23T13:44:07.137Z,100668.22
2022-08-23T13:46:26.533Z,100664.72
2022-08-23T13:48:33.072Z,100664.72
2022-08-23T13:50:37.478Z,100655.91
2022-08-23T13:53:03.080Z,100663.03
2022-08-23T13:55:03.100Z,100660.38
2022-08-23T13:57:14.279Z,100662.81
2022-08-23T13:59:31.254Z,100659.63
2022-08-23T14:01:40.015Z,100656.56
2022-08-23T14:03:44.133Z,100658.22
2022-08-23T14:05:46.875Z,100661.75
2022-08-23T14:07:53.054Z,100657.72
2022-08-23T14:09:57.463Z,100655.78
2022-08-23T14:12:09.675Z,100656.50
2022-08-23T14:16:39.836Z,100659.00
2022-08-23T14:21:06.377Z,100651.47
2022-08-23T14:23:12.084Z,100652.25
2022-08-23T14:25:15.868Z,100650.50
2022-08-23T14:27:18.611Z,100647.19
2022-08-23T14:29:22.837Z,100650.97
2022-08-23T14:31:25.875Z,100647.94
2022-08-23T14:33:28.640Z,100648.75
2022-08-23T14:35:31.860Z,100650.66
2022-08-23T14:39:59.786Z,100651.28
2022-08-23T14:42:03.727Z,100648.69
2022-08-23T14:44:06.774Z,100642.16
2022-08-23T14:46:09.650Z,100641.19
2022-08-23T14:48:12.696Z,100641.09
2022-08-23T14:50:15.610Z,100645.53
2022-08-23T14:52:18.315Z,100642.72
2022-08-23T14:54:24.268Z,100637.78
2022-08-23T14:56:27.181Z,100635.66
2022-08-23T14:58:29.715Z,100631.50
2022-08-23T15:00:35.638Z,100632.56
2022-08-23T15:02:38.443Z,100629.16
2022-08-23T15:04:42.326Z,100638.63
2022-08-23T15:07:06.816Z,100626.16
2022-08-23T15:09:07.853Z,100624.25
2022-08-23T15:13:41.590Z,100629.13
2022-08-23T15:15:58.954Z,100628.38
2022-08-23T15:18:07.001Z,100630.75
2022-08-23T15:20:10.149Z,100623.41
2022-08-23T15:22:21.392Z,100636.84
2022-08-23T15:24:24.694Z,100624.63
2022-08-23T15:26:30.806Z,100629.19
2022-08-23T15:28:33.361Z,100624.31
2022-08-23T15:30:36.790Z,100634.34
2022-08-23T15:32:39.678Z,100633.75
2022-08-23T15:34:54.925Z,100628.59
2022-08-23T15:36:57.563Z,100626.84
2022-08-23T15:39:00.469Z,100636.53
2022-08-23T15:41:03.604Z,100630.22
2022-08-23T15:43:06.230Z,100634.50
2022-08-23T15:45:09.262Z,100635.53
2022-08-23T15:47:41.616Z,100635.03
2022-08-23T15:49:44.634Z,100632.69
2022-08-23T15:51:47.347Z,100641.44
2022-08-23T15:53:49.909Z,100630.75
2022-08-23T15:55:53.672Z,100637.00
2022-08-23T15:57:58.621Z,100636.88
2022-08-23T16:00:01.234Z,100635.97
2022-08-23T16:02:05.175Z,100645.31
2022-08-23T16:04:09.177Z,100639.91
2022-08-23T16:06:13.755Z,100640.88
2022-08-23T16:08:22.352Z,100642.59
2022-08-23T16:10:25.352Z,100638.75
2022-08-23T16:12:31.766Z,100642.06
2022-08-23T16:14:35.287Z,100648.59
2022-08-23T16:16:40.668Z,100642.38
2022-08-23T16:18:43.693Z,100636.91
2022-08-23T16:20:46.466Z,100653.16
2022-08-23T16:22:48.991Z,100649.25
2022-08-23T16:24:51.655Z,100654.56
2022-08-23T16:26:55.491Z,100649.00
2022-08-23T16:28:59.682Z,100652.75
2022-08-23T16:31:03.378Z,100653.19
2022-08-23T16:33:06.114Z,100651.19
2022-08-23T16:35:09.640Z,100654.78
2022-08-23T16:37:12.197Z,100659.56
2022-08-23T16:39:16.264Z,100656.03
2022-08-23T16:41:19.509Z,100659.78
2022-08-23T16:43:22.301Z,100657.03
2022-08-23T16:45:25.831Z,100661.56
2022-08-23T16:47:33.849Z,100657.97
2022-08-23T16:49:36.416Z,100652.81
2022-08-23T16:51:39.091Z,100665.25
2022-08-23T16:53:42.143Z,100665.31
2022-08-23T16:55:47.097Z,100670.28
2022-08-23T16:57:49.709Z,100666.78
2022-08-23T16:59:52.979Z,100670.59
2022-08-23T17:02:04.525Z,100671.47
2022-08-23T17:04:14.177Z,100670.44
2022-08-23T17:06:17.395Z,100663.75
2022-08-23T17:08:19.985Z,100663.88
2022-08-23T17:10:23.010Z,100665.16
2022-08-23T17:12:26.156Z,100669.25
2022-08-23T17:14:28.799Z,100680.59
2022-08-23T17:16:31.651Z,100677.78
2022-08-23T17:18:34.822Z,100682.25
2022-08-23T17:20:39.789Z,100679.03
2022-08-23T17:22:43.191Z,100677.84
2022-08-23T17:24:45.762Z,100678.69
2022-08-23T17:26:50.347Z,100682.34
2022-08-23T17:28:52.988Z,100678.34
2022-08-23T17:30:55.742Z,100671.44
2022-08-23T17:32:59.019Z,100671.84
2022-08-23T17:35:02.236Z,100662.56
2022-08-23T17:37:15.993Z,100667.88
2022-08-23T17:39:23.329Z,100669.91
2022-08-23T17:41:28.638Z,100668.31
2022-08-23T17:43:50.033Z,100666.69
2022-08-23T17:45:54.047Z,100668.72
2022-08-23T17:47:59.306Z,100677.22
2022-08-23T17:50:04.719Z,100671.56
2022-08-23T17:52:09.426Z,100672.78
2022-08-23T17:54:16.794Z,100666.34
2022-08-23T17:56:20.610Z,100676.06
2022-08-23T17:58:23.754Z,100671.59
2022-08-23T18:00:29.223Z,100672.84
2022-08-23T18:02:32.313Z,100673.28
2022-08-23T18:04:35.513Z,100674.09
2022-08-23T18:06:38.454Z,100677.34
2022-08-23T18:08:41.634Z,100674.53
2022-08-23T18:10:44.378Z,100680.19
2022-08-23T18:12:46.987Z,100675.38
2022-08-23T18:14:50.961Z,100675.84
2022-08-23T18:16:54.635Z,100674.63
2022-08-23T18:18:58.360Z,100670.66
2022-08-23T18:21:06.601Z,100674.31
2022-08-23T18:23:09.322Z,100677.19
2022-08-23T18:25:14.346Z,100669.13
2022-08-23T18:27:35.694Z,100675.97
2022-08-23T18:29:39.339Z,100669.97
2022-08-23T18:31:44.147Z,100677.25
2022-08-23T18:33:47.453Z,100672.41
2022-08-23T18:35:51.677Z,100678.50
2022-08-23T18:37:54.690Z,100684.97
2022-08-23T18:40:16.071Z,100680.91
2022-08-23T18:42:20.926Z,100678.94
2022-08-23T18:44:23.640Z,100676.50
2022-08-23T18:46:31.731Z,100682.97
2022-08-23T18:48:36.793Z,100680.97
2022-08-23T18:50:41.713Z,100676.53
2022-08-23T18:52:44.670Z,100677.34
2022-08-23T18:54:47.278Z,100675.34
2022-08-23T18:56:49.821Z,100680.97
2022-08-23T18:58:53.114Z,100680.16
2022-08-23T19:00:56.372Z,100678.19
2022-08-23T19:02:59.555Z,100675.34
2022-08-23T19:05:03.827Z,100676.97
2022-08-23T19:07:06.448Z,100674.13
2022-08-23T19:09:11.381Z,100672.13
2022-08-23T19:11:16.177Z,100676.56
2022-08-23T19:13:18.747Z,100679.41
2022-08-23T19:15:22.241Z,100671.31
2022-08-23T19:17:24.986Z,100680.56
2022-08-23T19:19:27.848Z,100672.53
2022-08-23T19:21:31.035Z,100676.16
2022-08-23T19:23:34.794Z,100678.16
2022-08-23T19:25:38.731Z,100672.13
2022-08-23T19:27:41.450Z,100676.94
2022-08-23T19:29:44.319Z,100676.13
2022-08-23T19:31:48.444Z,100674.91
2022-08-23T19:33:51.634Z,100674.13
2022-08-23T19:35:55.413Z,100672.50
2022-08-23T19:38:01.339Z,100679.75
2022-08-23T19:40:05.414Z,100678.13
2022-08-23T19:42:11.923Z,100670.88
2022-08-23T19:44:15.525Z,100676.53
2022-08-23T19:46:20.461Z,100672.50
2022-08-23T19:48:23.873Z,100672.88
2022-08-23T19:50:27.709Z,100680.94
2022-08-23T19:52:30.229Z,100685.31
2022-08-23T19:54:33.205Z,100677.25
2022-08-23T19:56:43.433Z,100687.69
2022-08-23T19:58:47.353Z,100674.81
2022-08-23T20:00:50.171Z,100683.63
2022-08-23T20:02:53.257Z,100686.84
2022-08-23T20:04:56.691Z,100690.06
2022-08-23T20:07:01.324Z,100681.19
2022-08-23T20:09:06.218Z,100689.63
2022-08-23T20:11:10.502Z,100694.03
2022-08-23T20:13:14.308Z,100686.78
2022-08-23T20:15:17.057Z,100684.75
2022-08-23T20:17:19.804Z,100688.31
2022-08-23T20:19:22.609Z,100680.25
2022-08-23T20:21:26.240Z,100683.88
2022-08-23T20:23:47.850Z,100687.06
2022-08-23T20:25:50.649Z,100683.81
2022-08-23T20:27:53.222Z,100692.66
2022-08-23T20:29:55.796Z,100687.78
2022-08-23T20:32:06.468Z,100688.59
2022-08-23T20:34:09.345Z,100681.34
2022-08-23T20:36:12.690Z,100682.94
2022-08-23T20:38:32.862Z,100682.53
2022-08-23T20:40:36.542Z,100682.94
2022-08-23T20:42:39.101Z,100681.72
2022-08-23T20:44:42.326Z,100689.34
2022-08-23T20:46:45.075Z,100690.16
2022-08-23T20:48:48.169Z,100679.66
2022-08-23T20:50:50.887Z,100682.09
2022-08-23T20:52:54.159Z,100690.94
2022-08-23T20:54:56.817Z,100678.84
2022-08-23T20:56:59.474Z,100692.13
2022-08-23T20:59:05.215Z,100686.88
2022-08-23T21:01:09.360Z,100695.69
2022-08-23T21:03:14.313Z,100686.47
2022-08-23T21:05:17.178Z,100688.44
2022-08-23T21:07:19.799Z,100688.44
2022-08-23T21:09:29.537Z,100697.25
2022-08-23T21:11:32.443Z,100687.16
2022-08-23T21:13:35.260Z,100691.53
2022-08-23T21:15:37.856Z,100701.94
2022-08-23T21:17:40.800Z,100691.47
2022-08-23T21:19:44.387Z,100697.88
2022-08-23T21:21:47.000Z,100697.03
2022-08-23T21:23:50.549Z,100691.00
2022-08-23T21:25:57.444Z,100699.41
2022-08-23T21:28:04.101Z,100693.75
2022-08-23T21:30:08.971Z,100696.13
2022-08-23T21:32:11.747Z,100703.72
2022-08-23T21:34:14.444Z,100704.47
2022-08-23T21:36:19.462Z,100704.47
2022-08-23T21:38:22.246Z,100703.22
2022-08-23T21:40:25.367Z,100697.56
2022-08-23T21:42:27.920Z,100709.59
2022-08-23T21:44:30.500Z,100713.13
2022-08-23T21:46:34.269Z,100705.91
2022-08-23T21:48:36.943Z,100710.69
2022-08-23T21:50:39.473Z,100710.63
2022-08-23T21:52:42.223Z,100710.19
2022-08-23T21:54:44.798Z,100718.63
2022-08-23T21:56:47.853Z,100713.41
2022-08-23T21:58:50.846Z,100715.00
2022-08-23T22:00:53.494Z,100712.59
2022-08-23T22:02:56.135Z,100712.59
2022-08-23T22:04:58.906Z,100717.41
2022-08-23T22:07:01.481Z,100715.38
2022-08-23T22:09:06.933Z,100716.56
2022-08-23T22:11:10.447Z,100724.94
2022-08-23T22:13:13.572Z,100726.16
2022-08-23T22:15:17.610Z,100725.28
2022-08-23T22:17:20.699Z,100730.09
2022-08-23T22:19:23.350Z,100722.41
2022-08-23T22:21:25.952Z,100722.75
2022-08-23T22:23:30.442Z,100724.28
2022-08-23T22:25:33.383Z,100727.84
2022-08-23T22:27:36.509Z,100728.97
2022-08-23T22:29:39.915Z,100729.69
2022-08-23T22:31:48.079Z,100727.22
2022-08-23T22:33:51.047Z,100738.00
2022-08-23T22:35:53.997Z,100725.16
2022-08-23T22:38:13.225Z,100722.75
2022-08-23T22:40:18.954Z,100725.06
2022-08-23T22:42:21.810Z,100731.41
2022-08-23T22:44:24.530Z,100728.50
2022-08-23T22:46:30.310Z,100725.22
2022-08-23T22:48:35.268Z,100730.34
2022-08-23T22:50:37.936Z,100729.47
2022-08-23T22:52:40.606Z,100727.00
2022-08-23T22:54:43.686Z,100733.69
2022-08-23T22:56:50.114Z,100740.13
2022-08-23T22:58:53.861Z,100738.06
2022-08-23T23:00:56.529Z,100741.19
2022-08-23T23:02:59.730Z,100740.72
2022-08-23T23:05:02.481Z,100740.66
2022-08-23T23:07:06.070Z,100747.00
2022-08-23T23:09:10.117Z,100745.41
2022-08-23T23:11:14.276Z,100743.78
2022-08-23T23:13:17.000Z,100745.66
2022-08-23T23:15:19.969Z,100742.00
2022-08-23T23:17:22.564Z,100743.94
2022-08-23T23:19:45.781Z,100739.00
2022-08-23T23:21:52.513Z,100740.56
2022-08-23T23:23:55.418Z,100743.31
2022-08-23T23:25:58.782Z,100742.88
2022-08-23T23:28:02.814Z,100740.81
2022-08-23T23:30:05.894Z,100739.25
2022-08-23T23:32:08.550Z,100746.09
2022-08-23T23:34:11.430Z,100742.88
2022-08-23T23:36:16.514Z,100753.94
2022-08-23T23:38:20.318Z,100749.47
2022-08-23T23:40:24.892Z,100749.09
2022-08-23T23:42:27.523Z,100753.44
2022-08-23T23:44:30.923Z,100744.97
2022-08-23T23:46:35.391Z,100750.88
2022-08-23T23:48:39.388Z,100746.41
2022-08-23T23:50:46.631Z,100737.94
2022-08-23T23:52:49.746Z,100740.69
2022-08-23T23:54:52.307Z,100739.78
2022-08-23T23:56:55.681Z,100742.59
2022-08-23T23:58:59.486Z,100739.78
